createdAt,value
2022-08-03T00:01:30.288Z,19.36
2022-08-03T00:03:57.690Z,19.26
2022-08-03T00:06:24.798Z,19.11
2022-08-03T00:08:51.871Z,19.07
2022-08-03T00:11:19.350Z,19.12
2022-08-03T00:13:46.901Z,19.01
2022-08-03T00:16:14.173Z,18.95
2022-08-03T00:18:41.755Z,18.87
2022-08-03T00:21:09.299Z,18.84
2022-08-03T00:23:51.936Z,18.87
2022-08-03T00:26:21.063Z,18.93
2022-08-03T00:28:48.773Z,18.97
2022-08-03T00:31:16.196Z,19.06
2022-08-03T00:33:59.659Z,19.09
2022-08-03T00:36:30.417Z,19.13
2022-08-03T00:38:57.917Z,19.17
2022-08-03T00:41:25.052Z,19.18
2022-08-03T00:43:52.183Z,19.19
2022-08-03T00:46:22.266Z,19.24
2022-08-03T00:48:52.726Z,19.31
2022-08-03T00:51:20.595Z,19.26
2022-08-03T00:53:48.013Z,19.27
2022-08-03T00:56:16.169Z,19.23
2022-08-03T00:58:46.939Z,19.34
2022-08-03T01:01:14.921Z,19.41
2022-08-03T01:03:42.389Z,19.38
2022-08-03T01:06:12.941Z,19.25
2022-08-03T01:09:11.320Z,19.08
2022-08-03T01:11:59.844Z,18.99
2022-08-03T01:14:41.916Z,18.84
2022-08-03T01:17:22.634Z,18.81
2022-08-03T01:20:08.581Z,18.76
2022-08-03T01:23:11.752Z,18.79
2022-08-03T01:25:54.460Z,18.82
2022-08-03T01:28:43.544Z,18.83
2022-08-03T01:31:11.671Z,18.85
2022-08-03T01:33:53.367Z,18.90
2022-08-03T01:36:23.548Z,18.88
2022-08-03T01:38:58.097Z,18.91
2022-08-03T01:41:29.463Z,18.90
2022-08-03T01:44:29.736Z,18.91
2022-08-03T01:46:49.220Z,18.90
2022-08-03T01:49:17.629Z,18.91
2022-08-03T01:52:02.820Z,18.97
2022-08-03T01:54:43.615Z,19.01
2022-08-03T01:57:11.318Z,19.06
2022-08-03T01:59:39.462Z,19.04
2022-08-03T02:02:15.995Z,19.06
2022-08-03T02:04:57.810Z,19.04
2022-08-03T02:07:26.150Z,19.01
2022-08-03T02:09:54.642Z,19.00
2022-08-03T02:12:24.639Z,19.01
2022-08-03T02:14:56.548Z,18.99
2022-08-03T02:17:38.665Z,19.02
2022-08-03T02:20:12.249Z,19.00
2022-08-03T02:22:41.067Z,18.97
2022-08-03T02:25:12.508Z,18.95
2022-08-03T02:27:45.760Z,18.94
2022-08-03T02:30:14.222Z,18.94
2022-08-03T02:32:44.703Z,18.93
2022-08-03T02:35:13.889Z,18.94
2022-08-03T02:37:45.072Z,18.96
2022-08-03T02:40:18.542Z,18.96
2022-08-03T02:42:47.080Z,19.00
2022-08-03T02:45:15.658Z,19.02
2022-08-03T02:47:54.231Z,18.99
2022-08-03T02:50:23.340Z,19.01
2022-08-03T02:52:52.193Z,19.06
2022-08-03T02:55:21.277Z,19.03
2022-08-03T02:57:49.075Z,19.05
2022-08-03T03:00:27.365Z,19.07
2022-08-03T03:03:00.978Z,19.06
2022-08-03T03:05:55.137Z,19.05
2022-08-03T03:08:20.830Z,19.04
2022-08-03T03:10:55.697Z,19.02
2022-08-03T03:13:23.532Z,19.02
2022-08-03T03:15:52.686Z,19.02
2022-08-03T03:18:22.906Z,19.01
2022-08-03T03:20:52.114Z,19.02
2022-08-03T03:23:22.064Z,19.08
2022-08-03T03:25:49.628Z,18.99
2022-08-03T03:28:17.072Z,18.96
2022-08-03T03:30:44.644Z,18.98
2022-08-03T03:33:20.541Z,18.97
2022-08-03T03:35:47.998Z,18.97
2022-08-03T03:38:15.072Z,18.95
2022-08-03T03:40:42.152Z,18.94
2022-08-03T03:43:13.193Z,18.99
2022-08-03T03:45:43.432Z,19.01
2022-08-03T03:48:11.088Z,19.02
2022-08-03T03:50:41.018Z,19.00
2022-08-03T03:53:12.241Z,19.02
2022-08-03T03:55:59.086Z,19.01
2022-08-03T03:58:27.641Z,19.02
2022-08-03T04:00:55.139Z,19.04
2022-08-03T04:03:22.598Z,19.09
2022-08-03T04:06:08.296Z,19.17
2022-08-03T04:08:54.307Z,19.19
2022-08-03T04:11:29.202Z,19.19
2022-08-03T04:14:06.983Z,19.29
2022-08-03T04:16:41.913Z,19.27
2022-08-03T04:19:18.518Z,19.26
2022-08-03T04:21:51.731Z,19.35
2022-08-03T04:24:20.527Z,19.37
2022-08-03T04:26:52.769Z,19.40
2022-08-03T04:29:21.098Z,19.51
2022-08-03T04:31:48.875Z,19.54
2022-08-03T04:34:16.378Z,19.59
2022-08-03T04:36:49.964Z,19.68
2022-08-03T04:39:25.340Z,19.77
2022-08-03T04:42:04.296Z,19.87
2022-08-03T04:44:40.832Z,19.92
2022-08-03T04:47:09.050Z,19.87
2022-08-03T04:49:37.710Z,20.01
2022-08-03T04:52:05.759Z,19.99
2022-08-03T04:54:40.429Z,20.13
2022-08-03T04:57:07.639Z,20.20
2022-08-03T04:59:39.079Z,20.28
2022-08-03T05:02:08.296Z,20.33
2022-08-03T05:04:35.471Z,20.37
2022-08-03T05:07:11.741Z,20.43
2022-08-03T05:09:52.359Z,20.48
2022-08-03T05:12:19.986Z,20.57
2022-08-03T05:14:47.087Z,20.69
2022-08-03T05:17:14.694Z,20.85
2022-08-03T05:19:42.106Z,21.05
2022-08-03T05:22:09.349Z,21.28
2022-08-03T05:24:36.468Z,21.44
2022-08-03T05:27:03.934Z,21.60
2022-08-03T05:29:31.006Z,21.77
2022-08-03T05:31:58.130Z,22.00
2022-08-03T05:34:25.535Z,22.19
2022-08-03T05:36:52.628Z,22.38
2022-08-03T05:39:19.783Z,22.52
2022-08-03T05:41:47.195Z,22.64
2022-08-03T05:44:14.294Z,22.83
2022-08-03T05:46:41.368Z,23.06
2022-08-03T05:49:08.760Z,23.26
2022-08-03T05:51:37.182Z,23.39
2022-08-03T05:54:04.471Z,23.59
2022-08-03T05:56:32.385Z,23.68
2022-08-03T05:59:07.362Z,23.82
2022-08-03T06:01:46.927Z,23.97
2022-08-03T06:04:14.360Z,24.09
2022-08-03T06:06:42.165Z,24.24
2022-08-03T06:09:10.720Z,24.36
2022-08-03T06:11:39.232Z,24.55
2022-08-03T06:14:06.618Z,24.67
2022-08-03T06:16:33.831Z,24.76
2022-08-03T06:19:01.442Z,24.92
2022-08-03T06:21:28.583Z,25.00
2022-08-03T06:23:55.769Z,25.13
2022-08-03T06:26:25.158Z,25.26
2022-08-03T06:28:54.168Z,25.37
2022-08-03T06:31:24.158Z,25.49
2022-08-03T06:34:32.324Z,25.63
2022-08-03T06:36:39.070Z,25.73
2022-08-03T06:39:06.506Z,25.87
2022-08-03T06:41:37.534Z,25.99
2022-08-03T06:44:10.422Z,26.10
2022-08-03T06:46:37.640Z,26.26
2022-08-03T06:49:04.875Z,26.40
2022-08-03T06:52:05.801Z,26.56
2022-08-03T06:54:19.981Z,26.67
2022-08-03T06:56:47.405Z,26.81
2022-08-03T07:00:10.769Z,26.95
2022-08-03T07:02:01.887Z,27.08
2022-08-03T07:04:28.981Z,27.19
2022-08-03T07:06:56.111Z,27.37
2022-08-03T07:09:23.907Z,27.38
2022-08-03T07:11:51.070Z,27.52
2022-08-03T07:14:18.361Z,27.64
2022-08-03T07:16:45.756Z,27.73
2022-08-03T07:19:12.882Z,27.85
2022-08-03T07:21:39.987Z,27.98
2022-08-03T07:24:07.506Z,28.06
2022-08-03T07:26:34.580Z,28.18
2022-08-03T07:29:01.686Z,28.29
2022-08-03T07:31:29.080Z,28.45
2022-08-03T07:34:01.708Z,28.51
2022-08-03T07:36:29.171Z,28.68
2022-08-03T07:38:58.187Z,28.75
2022-08-03T07:41:25.279Z,28.68
2022-08-03T07:43:52.680Z,28.77
2022-08-03T07:46:19.776Z,28.90
2022-08-03T07:48:46.890Z,29.05
2022-08-03T07:51:14.273Z,29.16
2022-08-03T07:53:45.970Z,29.33
2022-08-03T07:56:14.882Z,29.43
2022-08-03T07:58:42.003Z,29.38
2022-08-03T08:01:09.285Z,29.36
2022-08-03T08:03:41.152Z,29.43
2022-08-03T08:06:21.533Z,29.53
2022-08-03T08:08:48.902Z,29.73
2022-08-03T08:11:16.029Z,29.88
2022-08-03T08:13:43.265Z,29.97
2022-08-03T08:16:10.649Z,30.02
2022-08-03T08:18:37.731Z,30.21
2022-08-03T08:21:04.940Z,30.28
2022-08-03T08:23:41.899Z,30.34
2022-08-03T08:26:11.018Z,30.53
2022-08-03T08:28:38.784Z,30.61
2022-08-03T08:31:06.020Z,30.69
2022-08-03T08:34:02.788Z,30.74
2022-08-03T08:36:22.157Z,30.67
2022-08-03T08:38:49.255Z,30.66
2022-08-03T08:41:16.521Z,30.90
2022-08-03T08:43:44.018Z,30.97
2022-08-03T08:46:19.203Z,31.03
2022-08-03T08:48:52.638Z,30.98
2022-08-03T08:51:21.108Z,31.00
2022-08-03T08:53:52.718Z,31.05
2022-08-03T08:56:20.663Z,31.01
2022-08-03T08:58:52.006Z,31.04
2022-08-03T09:01:20.397Z,31.00
2022-08-03T09:03:48.148Z,31.02
2022-08-03T09:06:15.676Z,31.05
2022-08-03T09:08:43.629Z,31.14
2022-08-03T09:11:12.282Z,31.16
2022-08-03T09:13:39.510Z,31.12
2022-08-03T09:16:21.049Z,31.08
2022-08-03T09:18:50.243Z,31.16
2022-08-03T09:21:32.197Z,31.15
2022-08-03T09:24:05.702Z,31.16
2022-08-03T09:26:36.402Z,31.13
2022-08-03T09:29:14.326Z,31.25
2022-08-03T09:31:45.834Z,31.27
2022-08-03T09:34:15.456Z,31.29
2022-08-03T09:36:53.985Z,31.33
2022-08-03T09:39:40.391Z,31.40
2022-08-03T09:42:14.803Z,31.44
2022-08-03T09:44:44.441Z,31.33
2022-08-03T09:47:13.627Z,31.32
2022-08-03T09:49:44.826Z,31.37
2022-08-03T09:52:32.647Z,31.48
2022-08-03T09:56:33.220Z,31.30
2022-08-03T09:58:09.201Z,31.25
2022-08-03T10:00:59.835Z,31.32
2022-08-03T10:03:29.929Z,31.49
2022-08-03T10:05:59.803Z,31.60
2022-08-03T10:08:27.627Z,31.68
2022-08-03T10:10:54.756Z,31.62
2022-08-03T10:13:23.244Z,31.70
2022-08-03T10:16:22.719Z,31.75
2022-08-03T10:18:38.370Z,31.87
2022-08-03T10:21:10.779Z,32.13
2022-08-03T10:23:39.838Z,32.23
2022-08-03T10:26:07.923Z,32.17
2022-08-03T10:28:42.813Z,32.14
2022-08-03T10:31:13.962Z,32.14
2022-08-03T10:33:51.591Z,32.23
2022-08-03T10:36:24.638Z,32.35
2022-08-03T10:38:53.360Z,32.50
2022-08-03T10:41:27.160Z,32.57
2022-08-03T10:44:03.844Z,32.71
2022-08-03T10:46:33.797Z,32.76
2022-08-03T10:49:01.087Z,33.04
2022-08-03T10:51:32.064Z,33.38
2022-08-03T10:54:01.554Z,33.59
2022-08-03T10:56:50.894Z,33.87
2022-08-03T10:59:27.780Z,33.98
2022-08-03T11:02:00.241Z,34.29
2022-08-03T11:04:30.006Z,34.24
2022-08-03T11:07:17.471Z,34.60
2022-08-03T11:09:49.610Z,34.95
2022-08-03T11:12:29.994Z,35.09
2022-08-03T11:15:05.433Z,35.29
2022-08-03T11:17:46.773Z,35.30
2022-08-03T11:20:44.140Z,35.48
2022-08-03T11:23:11.406Z,35.66
2022-08-03T11:26:14.108Z,35.86
2022-08-03T11:28:42.746Z,35.65
2022-08-03T11:31:46.897Z,35.81
2022-08-03T11:34:10.956Z,36.22
2022-08-03T11:37:16.580Z,36.63
2022-08-03T11:39:46.554Z,37.00
2022-08-03T11:42:34.176Z,37.06
2022-08-03T11:45:01.282Z,37.43
2022-08-03T11:47:29.971Z,37.67
2022-08-03T11:50:00.649Z,38.13
2022-08-03T11:52:28.994Z,38.60
2022-08-03T11:54:57.322Z,38.82
2022-08-03T11:59:01.120Z,38.79
2022-08-03T12:00:32.490Z,38.97
2022-08-03T12:03:08.777Z,39.07
2022-08-03T12:05:39.790Z,39.23
2022-08-03T12:08:09.459Z,38.80
2022-08-03T12:10:37.363Z,38.35
2022-08-03T12:14:44.672Z,38.46
2022-08-03T12:15:59.201Z,38.94
2022-08-03T12:18:26.863Z,39.03
2022-08-03T12:21:04.533Z,40.10
2022-08-03T12:23:34.870Z,40.57
2022-08-03T12:26:10.020Z,41.00
2022-08-03T12:28:38.518Z,41.41
2022-08-03T12:31:07.801Z,41.57
2022-08-03T12:34:02.846Z,41.70
2022-08-03T12:36:32.272Z,41.67
2022-08-03T12:39:08.166Z,41.77
2022-08-03T12:41:39.092Z,42.08
2022-08-03T12:44:07.447Z,42.19
2022-08-03T12:46:36.826Z,42.04
2022-08-03T12:49:06.994Z,41.64
2022-08-03T12:51:57.387Z,40.81
2022-08-03T12:54:31.682Z,40.73
2022-08-03T12:57:04.730Z,41.28
2022-08-03T12:59:35.488Z,40.66
2022-08-03T13:02:16.301Z,39.71
2022-08-03T13:04:46.415Z,38.40
2022-08-03T13:07:14.666Z,37.45
2022-08-03T13:09:44.637Z,36.75
2022-08-03T13:12:17.179Z,36.07
2022-08-03T13:14:46.443Z,35.56
2022-08-03T13:17:14.245Z,35.24
2022-08-03T13:19:41.336Z,35.59
2022-08-03T13:22:12.646Z,35.96
2022-08-03T13:24:40.343Z,36.60
2022-08-03T13:28:02.454Z,37.67
2022-08-03T13:29:55.611Z,38.53
2022-08-03T13:32:23.375Z,38.94
2022-08-03T13:34:50.528Z,39.41
2022-08-03T13:37:17.959Z,39.85
2022-08-03T13:39:58.108Z,40.43
2022-08-03T13:42:32.022Z,41.05
2022-08-03T13:45:00.419Z,41.20
2022-08-03T13:47:28.179Z,41.55
2022-08-03T13:50:01.403Z,41.74
2022-08-03T13:52:34.344Z,41.74
2022-08-03T13:55:02.874Z,41.86
2022-08-03T13:58:02.452Z,42.15
2022-08-03T14:00:26.244Z,42.18
2022-08-03T14:03:02.892Z,41.98
2022-08-03T14:05:33.286Z,42.04
2022-08-03T14:08:03.922Z,41.97
2022-08-03T14:10:31.997Z,41.88
2022-08-03T14:13:00.481Z,41.67
2022-08-03T14:15:28.800Z,41.47
2022-08-03T14:17:58.780Z,41.28
2022-08-03T14:20:38.926Z,41.06
2022-08-03T14:23:15.205Z,40.97
2022-08-03T14:25:44.473Z,41.05
2022-08-03T14:28:23.057Z,39.93
2022-08-03T14:30:51.558Z,40.09
2022-08-03T14:33:19.168Z,40.38
2022-08-03T14:35:46.642Z,40.51
2022-08-03T14:38:14.005Z,40.49
2022-08-03T14:40:41.527Z,40.37
2022-08-03T14:43:09.585Z,40.29
2022-08-03T14:45:36.712Z,40.03
2022-08-03T14:50:31.857Z,39.66
2022-08-03T14:50:56.685Z,39.56
2022-08-03T14:53:24.135Z,39.50
2022-08-03T14:55:52.898Z,39.38
2022-08-03T14:58:22.327Z,39.22
2022-08-03T15:00:51.621Z,39.17
2022-08-03T15:03:23.119Z,38.90
2022-08-03T15:05:57.385Z,38.61
2022-08-03T15:08:25.705Z,38.56
2022-08-03T15:10:54.415Z,38.51
2022-08-03T15:13:21.974Z,38.27
2022-08-03T15:15:49.829Z,38.08
2022-08-03T15:18:17.528Z,37.90
2022-08-03T15:20:46.270Z,37.69
2022-08-03T15:23:14.941Z,37.53
2022-08-03T15:26:04.195Z,37.52
2022-08-03T15:28:31.035Z,37.51
2022-08-03T15:30:58.687Z,37.43
2022-08-03T15:33:25.777Z,37.40
2022-08-03T15:35:53.391Z,37.25
2022-08-03T15:38:26.257Z,37.08
2022-08-03T15:40:54.837Z,36.87
2022-08-03T15:43:23.668Z,36.71
2022-08-03T15:46:19.189Z,36.54
2022-08-03T15:48:38.639Z,36.39
2022-08-03T15:51:06.019Z,36.22
2022-08-03T15:53:33.702Z,36.06
2022-08-03T15:56:05.257Z,35.62
2022-08-03T15:59:03.268Z,35.40
2022-08-03T16:01:25.438Z,35.11
2022-08-03T16:03:52.892Z,34.72
2022-08-03T16:06:35.223Z,34.46
2022-08-03T16:09:23.460Z,34.27
2022-08-03T16:11:53.738Z,34.11
2022-08-03T16:14:32.008Z,33.82
2022-08-03T16:17:03.728Z,33.56
2022-08-03T16:19:31.231Z,33.49
2022-08-03T16:21:58.446Z,33.34
2022-08-03T16:24:27.761Z,33.26
2022-08-03T16:26:56.657Z,33.18
2022-08-03T16:29:24.177Z,33.08
2022-08-03T16:31:52.449Z,33.03
2022-08-03T16:34:21.076Z,32.80
2022-08-03T16:36:48.209Z,32.63
2022-08-03T16:39:15.538Z,32.51
2022-08-03T16:41:54.564Z,32.40
2022-08-03T16:44:30.606Z,32.26
2022-08-03T16:46:59.434Z,32.05
2022-08-03T16:49:54.161Z,31.88
2022-08-03T16:52:14.193Z,31.76
2022-08-03T16:54:44.470Z,31.52
2022-08-03T16:57:56.550Z,31.29
2022-08-03T17:00:11.972Z,31.04
2022-08-03T17:02:48.052Z,30.87
2022-08-03T17:05:15.576Z,30.75
2022-08-03T17:07:46.939Z,30.74
2022-08-03T17:10:21.947Z,30.56
2022-08-03T17:12:55.084Z,30.38
2022-08-03T17:15:38.504Z,30.23
2022-08-03T17:18:12.479Z,30.10
2022-08-03T17:20:42.577Z,29.95
2022-08-03T17:23:34.479Z,29.89
2022-08-03T17:26:08.913Z,29.78
2022-08-03T17:28:52.000Z,29.65
2022-08-03T17:31:31.409Z,29.54
2022-08-03T17:34:04.466Z,29.45
2022-08-03T17:37:02.006Z,29.32
2022-08-03T17:39:36.167Z,29.18
2022-08-03T17:42:29.227Z,29.07
2022-08-03T17:44:57.847Z,28.95
2022-08-03T17:47:29.170Z,28.82
2022-08-03T17:50:24.855Z,28.76
2022-08-03T17:53:14.416Z,28.69
2022-08-03T17:55:57.600Z,28.57
2022-08-03T17:58:41.247Z,28.50
2022-08-03T18:01:58.464Z,28.37
2022-08-03T18:04:29.731Z,28.25
2022-08-03T18:06:58.553Z,28.10
2022-08-03T18:10:06.706Z,27.97
2022-08-03T18:12:30.698Z,27.84
2022-08-03T18:15:01.208Z,27.72
2022-08-03T18:17:55.720Z,27.62
2022-08-03T18:20:34.139Z,27.51
2022-08-03T18:23:06.319Z,27.38
2022-08-03T18:25:44.917Z,27.30
2022-08-03T18:28:18.854Z,27.18
2022-08-03T18:30:54.622Z,27.03
2022-08-03T18:34:19.532Z,27.01
2022-08-03T18:36:17.460Z,26.88
2022-08-03T18:38:47.506Z,26.86
2022-08-03T18:41:22.161Z,26.71
2022-08-03T18:44:09.067Z,26.60
2022-08-03T18:47:08.054Z,26.52
2022-08-03T18:49:57.077Z,26.47
2022-08-03T18:52:31.757Z,26.35
2022-08-03T18:55:20.013Z,26.29
2022-08-03T18:57:52.571Z,26.21
2022-08-03T19:00:24.559Z,26.11
2022-08-03T19:03:12.524Z,26.02
2022-08-03T19:06:09.469Z,25.97
2022-08-03T19:09:04.059Z,25.91
2022-08-03T19:12:14.280Z,25.82
2022-08-03T19:14:31.921Z,25.74
2022-08-03T19:17:09.718Z,25.64
2022-08-03T19:19:44.489Z,25.59
2022-08-03T19:22:16.214Z,25.50
2022-08-03T19:24:45.460Z,25.45
2022-08-03T19:27:13.297Z,25.50
2022-08-03T19:30:00.427Z,25.60
2022-08-03T19:32:30.111Z,25.40
2022-08-03T19:34:59.804Z,25.34
2022-08-03T19:40:15.517Z,25.22
2022-08-03T19:42:54.631Z,25.19
2022-08-03T19:45:52.679Z,25.17
2022-08-03T19:48:19.219Z,25.18
2022-08-03T19:50:53.466Z,25.20
2022-08-03T19:53:20.858Z,25.14
2022-08-03T19:55:52.120Z,25.16
2022-08-03T19:58:28.452Z,25.12
2022-08-03T20:00:56.242Z,25.11
2022-08-03T20:03:27.483Z,25.21
2022-08-03T20:06:12.521Z,25.11
2022-08-03T20:08:44.554Z,25.07
2022-08-03T20:11:11.765Z,25.04
2022-08-03T20:13:39.436Z,24.99
2022-08-03T20:16:06.858Z,24.90
2022-08-03T20:18:39.420Z,24.81
2022-08-03T20:21:15.128Z,24.76
2022-08-03T20:23:45.499Z,24.68
2022-08-03T20:26:31.228Z,24.62
2022-08-03T20:29:09.987Z,24.54
2022-08-03T20:31:37.788Z,24.48
2022-08-03T20:34:05.933Z,24.39
2022-08-03T20:36:33.146Z,24.35
2022-08-03T20:39:00.777Z,24.34
2022-08-03T20:41:28.083Z,24.27
2022-08-03T20:43:57.728Z,24.20
2022-08-03T20:46:32.853Z,24.18
2022-08-03T20:49:05.253Z,24.10
2022-08-03T20:51:48.977Z,24.06
2022-08-03T20:54:22.768Z,24.05
2022-08-03T20:56:59.693Z,23.97
2022-08-03T20:59:36.963Z,23.89
2022-08-03T21:02:19.756Z,23.80
2022-08-03T21:05:03.621Z,23.71
2022-08-03T21:08:05.061Z,23.67
2022-08-03T21:10:37.815Z,23.67
2022-08-03T21:13:02.595Z,25.27
2022-08-03T21:13:25.099Z,23.60
2022-08-03T21:16:04.089Z,23.56
2022-08-03T21:18:45.830Z,23.58
2022-08-03T21:21:15.440Z,23.56
2022-08-03T21:23:48.640Z,23.45
2022-08-03T21:26:18.074Z,23.44
2022-08-03T21:28:47.208Z,23.42
2022-08-03T21:31:23.725Z,23.39
2022-08-03T21:34:00.715Z,23.40
2022-08-03T21:36:28.629Z,23.32
2022-08-03T21:38:57.795Z,23.25
2022-08-03T21:41:27.591Z,23.21
2022-08-03T21:43:54.825Z,23.18
2022-08-03T21:46:22.978Z,23.15
2022-08-03T21:48:55.684Z,23.11
2022-08-03T21:51:26.834Z,23.07
2022-08-03T21:54:04.063Z,23.04
2022-08-03T21:56:42.666Z,23.01
2022-08-03T21:59:19.196Z,22.98
2022-08-03T22:01:55.263Z,22.94
2022-08-03T22:04:50.266Z,22.93
2022-08-03T22:07:13.460Z,22.89
2022-08-03T22:09:51.118Z,22.85
2022-08-03T22:12:23.833Z,22.84
2022-08-03T22:14:59.955Z,22.79
2022-08-03T22:17:54.849Z,22.76
2022-08-03T22:20:17.050Z,22.72
2022-08-03T22:22:53.532Z,22.62
2022-08-03T22:25:29.512Z,22.58
2022-08-03T22:27:58.929Z,22.57
2022-08-03T22:30:26.652Z,22.53
2022-08-03T22:32:56.185Z,22.52
2022-08-03T22:35:25.434Z,22.49
2022-08-03T22:37:55.036Z,22.46
2022-08-03T22:40:22.279Z,22.45
2022-08-03T22:42:50.580Z,22.42
2022-08-03T22:46:06.295Z,22.39
2022-08-03T22:48:08.090Z,22.36
2022-08-03T22:50:35.727Z,22.33
2022-08-03T22:53:03.496Z,22.27
2022-08-03T22:55:31.265Z,22.21
2022-08-03T22:57:59.031Z,22.32
2022-08-03T23:00:26.243Z,22.28
2022-08-03T23:02:54.506Z,22.20
2022-08-03T23:06:02.273Z,22.09
2022-08-03T23:08:15.275Z,22.01
2022-08-03T23:10:46.954Z,21.92
2022-08-03T23:13:18.256Z,21.88
2022-08-03T23:15:51.624Z,21.88
2022-08-03T23:18:20.335Z,21.88
2022-08-03T23:20:51.430Z,21.84
2022-08-03T23:23:20.647Z,21.82
2022-08-03T23:25:50.314Z,21.80
2022-08-03T23:28:18.365Z,21.82
2022-08-03T23:30:45.824Z,21.78
2022-08-03T23:33:16.836Z,21.80
2022-08-03T23:36:20.204Z,21.82
2022-08-03T23:38:49.145Z,21.82
2022-08-03T23:41:17.546Z,21.83
2022-08-03T23:43:51.888Z,21.85
2022-08-03T23:46:23.844Z,21.86
2022-08-03T23:48:51.255Z,21.87
2022-08-03T23:51:38.650Z,21.91
2022-08-03T23:54:09.071Z,21.86
2022-08-03T23:57:08.467Z,21.72
